sensor_id;sensor_type;location;lat;lon;timestamp;P1;durP1;ratioP1;P2;durP2;ratioP2
49378;SDS011;35254;47.990;-1.608;2023-03-11T00:00:30;0.88;;;0.50;;
49378;SDS011;35254;47.990;-1.608;2023-03-11T00:02:58;2.05;;;0.47;;
49378;SDS011;35254;47.990;-1.608;2023-03-11T00:05:29;0.90;;;0.45;;
49378;SDS011;35254;47.990;-1.608;2023-03-11T00:07:56;1.88;;;0.52;;
49378;SDS011;35254;47.990;-1.608;2023-03-11T00:10:23;2.40;;;0.70;;
49378;SDS011;35254;47.990;-1.608;2023-03-11T00:12:55;0.60;;;0.50;;
49378;SDS011;35254;47.990;-1.608;2023-03-11T00:15:21;0.65;;;0.50;;
49378;SDS011;35254;47.990;-1.608;2023-03-11T00:17:47;3.15;;;0.40;;
49378;SDS011;35254;47.990;-1.608;2023-03-11T00:20:32;0.95;;;0.60;;
49378;SDS011;35254;47.990;-1.608;2023-03-11T00:23:02;0.40;;;0.40;;
49378;SDS011;35254;47.990;-1.608;2023-03-11T00:25:30;1.00;;;0.50;;
49378;SDS011;35254;47.990;-1.608;2023-03-11T00:27:56;1.75;;;0.40;;
49378;SDS011;35254;47.990;-1.608;2023-03-11T00:30:23;1.35;;;0.50;;
49378;SDS011;35254;47.990;-1.608;2023-03-11T00:32:50;0.32;;;0.32;;
49378;SDS011;35254;47.990;-1.608;2023-03-11T00:35:21;1.38;;;0.60;;
49378;SDS011;35254;47.990;-1.608;2023-03-11T00:37:51;1.30;;;0.50;;
49378;SDS011;35254;47.990;-1.608;2023-03-11T00:40:18;0.35;;;0.25;;
49378;SDS011;35254;47.990;-1.608;2023-03-11T00:42:44;0.80;;;0.50;;
49378;SDS011;35254;47.990;-1.608;2023-03-11T00:45:11;0.40;;;0.40;;
49378;SDS011;35254;47.990;-1.608;2023-03-11T00:47:37;3.05;;;0.68;;
49378;SDS011;35254;47.990;-1.608;2023-03-11T00:50:03;7.10;;;0.70;;
49378;SDS011;35254;47.990;-1.608;2023-03-11T00:52:29;1.15;;;0.57;;
49378;SDS011;35254;47.990;-1.608;2023-03-11T00:54:55;0.60;;;0.50;;
49378;SDS011;35254;47.990;-1.608;2023-03-11T00:57:22;2.78;;;0.52;;
49378;SDS011;35254;47.990;-1.608;2023-03-11T00:59:47;0.40;;;0.40;;
49378;SDS011;35254;47.990;-1.608;2023-03-11T01:02:13;1.30;;;0.52;;
49378;SDS011;35254;47.990;-1.608;2023-03-11T01:04:39;1.17;;;0.47;;
49378;SDS011;35254;47.990;-1.608;2023-03-11T01:07:04;1.70;;;0.43;;
49378;SDS011;35254;47.990;-1.608;2023-03-11T01:09:30;1.63;;;0.40;;
49378;SDS011;35254;47.990;-1.608;2023-03-11T01:11:55;0.63;;;0.63;;
49378;SDS011;35254;47.990;-1.608;2023-03-11T01:14:21;1.73;;;0.57;;
49378;SDS011;35254;47.990;-1.608;2023-03-11T01:16:47;0.77;;;0.32;;
49378;SDS011;35254;47.990;-1.608;2023-03-11T01:19:13;3.30;;;0.60;;
49378;SDS011;35254;47.990;-1.608;2023-03-11T01:21:39;1.67;;;0.47;;
49378;SDS011;35254;47.990;-1.608;2023-03-11T01:24:04;0.25;;;0.25;;
49378;SDS011;35254;47.990;-1.608;2023-03-11T01:26:30;0.30;;;0.30;;
49378;SDS011;35254;47.990;-1.608;2023-03-11T01:28:56;2.13;;;0.50;;
49378;SDS011;35254;47.990;-1.608;2023-03-11T01:31:21;1.55;;;0.30;;
49378;SDS011;35254;47.990;-1.608;2023-03-11T01:33:47;1.02;;;0.43;;
49378;SDS011;35254;47.990;-1.608;2023-03-11T01:36:12;0.68;;;0.30;;
49378;SDS011;35254;47.990;-1.608;2023-03-11T01:38:38;0.43;;;0.35;;
49378;SDS011;35254;47.990;-1.608;2023-03-11T01:41:04;1.20;;;0.73;;
49378;SDS011;35254;47.990;-1.608;2023-03-11T01:48:39;3.05;;;0.30;;
49378;SDS011;35254;47.990;-1.608;2023-03-11T01:51:09;1.45;;;0.50;;
49378;SDS011;35254;47.990;-1.608;2023-03-11T01:53:34;1.88;;;0.47;;
49378;SDS011;35254;47.990;-1.608;2023-03-11T01:56:01;0.30;;;0.30;;
49378;SDS011;35254;47.990;-1.608;2023-03-11T01:58:30;0.90;;;0.40;;
49378;SDS011;35254;47.990;-1.608;2023-03-11T02:00:59;1.75;;;0.60;;
49378;SDS011;35254;47.990;-1.608;2023-03-11T02:03:28;0.52;;;0.20;;
49378;SDS011;35254;47.990;-1.608;2023-03-11T02:05:56;1.08;;;0.45;;
49378;SDS011;35254;47.990;-1.608;2023-03-11T02:08:23;2.25;;;0.63;;
49378;SDS011;35254;47.990;-1.608;2023-03-11T02:10:50;0.25;;;0.22;;
49378;SDS011;35254;47.990;-1.608;2023-03-11T02:13:17;0.65;;;0.50;;
49378;SDS011;35254;47.990;-1.608;2023-03-11T02:15:43;0.30;;;0.30;;
49378;SDS011;35254;47.990;-1.608;2023-03-11T02:18:09;1.65;;;0.43;;
49378;SDS011;35254;47.990;-1.608;2023-03-11T02:20:44;0.20;;;0.20;;
49378;SDS011;35254;47.990;-1.608;2023-03-11T02:26:35;0.47;;;0.22;;
49378;SDS011;35254;47.990;-1.608;2023-03-11T02:29:07;0.40;;;0.20;;
49378;SDS011;35254;47.990;-1.608;2023-03-11T02:31:38;1.00;;;0.40;;
49378;SDS011;35254;47.990;-1.608;2023-03-11T02:34:07;1.00;;;0.35;;
49378;SDS011;35254;47.990;-1.608;2023-03-11T02:36:40;2.10;;;0.30;;
49378;SDS011;35254;47.990;-1.608;2023-03-11T02:39:07;0.28;;;0.28;;
49378;SDS011;35254;47.990;-1.608;2023-03-11T02:41:34;0.88;;;0.30;;
49378;SDS011;35254;47.990;-1.608;2023-03-11T02:44:03;2.33;;;0.38;;
49378;SDS011;35254;47.990;-1.608;2023-03-11T02:46:32;0.30;;;0.30;;
49378;SDS011;35254;47.990;-1.608;2023-03-11T02:48:59;0.28;;;0.20;;
49378;SDS011;35254;47.990;-1.608;2023-03-11T02:51:25;0.70;;;0.28;;
49378;SDS011;35254;47.990;-1.608;2023-03-11T02:53:52;0.35;;;0.20;;
49378;SDS011;35254;47.990;-1.608;2023-03-11T02:56:21;1.98;;;0.22;;
49378;SDS011;35254;47.990;-1.608;2023-03-11T02:58:47;0.30;;;0.30;;
49378;SDS011;35254;47.990;-1.608;2023-03-11T03:01:13;0.25;;;0.25;;
49378;SDS011;35254;47.990;-1.608;2023-03-11T03:03:38;0.20;;;0.20;;
49378;SDS011;35254;47.990;-1.608;2023-03-11T03:06:04;0.80;;;0.40;;
49378;SDS011;35254;47.990;-1.608;2023-03-11T03:08:30;1.38;;;0.30;;
49378;SDS011;35254;47.990;-1.608;2023-03-11T03:10:56;0.20;;;0.10;;
49378;SDS011;35254;47.990;-1.608;2023-03-11T03:13:23;0.75;;;0.30;;
49378;SDS011;35254;47.990;-1.608;2023-03-11T03:15:49;0.93;;;0.30;;
49378;SDS011;35254;47.990;-1.608;2023-03-11T03:18:15;0.47;;;0.30;;
49378;SDS011;35254;47.990;-1.608;2023-03-11T03:20:41;0.52;;;0.30;;
49378;SDS011;35254;47.990;-1.608;2023-03-11T03:23:07;3.03;;;0.30;;
49378;SDS011;35254;47.990;-1.608;2023-03-11T03:25:33;1.23;;;0.90;;
49378;SDS011;35254;47.990;-1.608;2023-03-11T03:27:58;1.23;;;0.20;;
49378;SDS011;35254;47.990;-1.608;2023-03-11T03:30:24;1.85;;;0.20;;
49378;SDS011;35254;47.990;-1.608;2023-03-11T03:32:50;0.73;;;0.30;;
49378;SDS011;35254;47.990;-1.608;2023-03-11T03:35:15;0.68;;;0.30;;
49378;SDS011;35254;47.990;-1.608;2023-03-11T03:37:41;0.40;;;0.30;;
49378;SDS011;35254;47.990;-1.608;2023-03-11T03:40:07;1.65;;;0.55;;
49378;SDS011;35254;47.990;-1.608;2023-03-11T03:42:34;0.20;;;0.20;;
49378;SDS011;35254;47.990;-1.608;2023-03-11T03:45:00;0.22;;;0.22;;
49378;SDS011;35254;47.990;-1.608;2023-03-11T03:47:27;0.35;;;0.30;;
49378;SDS011;35254;47.990;-1.608;2023-03-11T03:49:53;1.33;;;0.35;;
49378;SDS011;35254;47.990;-1.608;2023-03-11T03:52:18;0.57;;;0.40;;
49378;SDS011;35254;47.990;-1.608;2023-03-11T03:54:44;0.20;;;0.20;;
49378;SDS011;35254;47.990;-1.608;2023-03-11T03:57:10;0.50;;;0.50;;
49378;SDS011;35254;47.990;-1.608;2023-03-11T03:59:35;1.17;;;0.30;;
49378;SDS011;35254;47.990;-1.608;2023-03-11T04:02:01;0.40;;;0.40;;
49378;SDS011;35254;47.990;-1.608;2023-03-11T04:04:27;0.13;;;0.13;;
49378;SDS011;35254;47.990;-1.608;2023-03-11T04:06:53;1.40;;;0.35;;
49378;SDS011;35254;47.990;-1.608;2023-03-11T04:09:18;0.20;;;0.17;;
49378;SDS011;35254;47.990;-1.608;2023-03-11T04:11:44;0.45;;;0.30;;
49378;SDS011;35254;47.990;-1.608;2023-03-11T04:14:10;2.92;;;0.40;;
49378;SDS011;35254;47.990;-1.608;2023-03-11T04:16:36;0.35;;;0.22;;
49378;SDS011;35254;47.990;-1.608;2023-03-11T04:19:02;0.30;;;0.20;;
49378;SDS011;35254;47.990;-1.608;2023-03-11T04:21:29;1.08;;;0.30;;
49378;SDS011;35254;47.990;-1.608;2023-03-11T04:23:56;2.40;;;0.50;;
49378;SDS011;35254;47.990;-1.608;2023-03-11T04:26:21;0.20;;;0.10;;
49378;SDS011;35254;47.990;-1.608;2023-03-11T04:28:47;1.67;;;0.28;;
49378;SDS011;35254;47.990;-1.608;2023-03-11T04:31:13;0.30;;;0.30;;
49378;SDS011;35254;47.990;-1.608;2023-03-11T04:33:38;0.28;;;0.28;;
49378;SDS011;35254;47.990;-1.608;2023-03-11T04:36:05;0.25;;;0.20;;
49378;SDS011;35254;47.990;-1.608;2023-03-11T04:38:31;1.35;;;0.40;;
49378;SDS011;35254;47.990;-1.608;2023-03-11T04:41:00;0.40;;;0.40;;
49378;SDS011;35254;47.990;-1.608;2023-03-11T04:43:27;0.40;;;0.30;;
49378;SDS011;35254;47.990;-1.608;2023-03-11T04:45:53;0.85;;;0.50;;
49378;SDS011;35254;47.990;-1.608;2023-03-11T04:48:18;0.75;;;0.30;;
49378;SDS011;35254;47.990;-1.608;2023-03-11T04:50:44;0.35;;;0.20;;
49378;SDS011;35254;47.990;-1.608;2023-03-11T04:53:10;1.40;;;0.40;;
49378;SDS011;35254;47.990;-1.608;2023-03-11T04:55:35;1.20;;;0.50;;
49378;SDS011;35254;47.990;-1.608;2023-03-11T04:58:02;0.93;;;0.38;;
49378;SDS011;35254;47.990;-1.608;2023-03-11T05:00:28;0.52;;;0.47;;
49378;SDS011;35254;47.990;-1.608;2023-03-11T05:02:53;0.43;;;0.30;;
49378;SDS011;35254;47.990;-1.608;2023-03-11T05:05:19;1.55;;;1.05;;
49378;SDS011;35254;47.990;-1.608;2023-03-11T05:07:44;0.30;;;0.30;;
49378;SDS011;35254;47.990;-1.608;2023-03-11T05:10:10;0.25;;;0.20;;
49378;SDS011;35254;47.990;-1.608;2023-03-11T05:12:36;0.17;;;0.17;;
49378;SDS011;35254;47.990;-1.608;2023-03-11T05:15:02;0.20;;;0.20;;
49378;SDS011;35254;47.990;-1.608;2023-03-11T05:17:28;0.20;;;0.20;;
49378;SDS011;35254;47.990;-1.608;2023-03-11T05:19:54;1.05;;;0.20;;
49378;SDS011;35254;47.990;-1.608;2023-03-11T05:22:20;0.25;;;0.20;;
49378;SDS011;35254;47.990;-1.608;2023-03-11T05:24:46;0.10;;;0.10;;
49378;SDS011;35254;47.990;-1.608;2023-03-11T05:27:12;0.20;;;0.20;;
49378;SDS011;35254;47.990;-1.608;2023-03-11T05:29:40;0.85;;;0.50;;
49378;SDS011;35254;47.990;-1.608;2023-03-11T05:32:06;1.25;;;0.52;;
49378;SDS011;35254;47.990;-1.608;2023-03-11T05:34:32;0.50;;;0.50;;
49378;SDS011;35254;47.990;-1.608;2023-03-11T05:36:57;1.55;;;0.20;;
49378;SDS011;35254;47.990;-1.608;2023-03-11T05:39:23;0.73;;;0.30;;
49378;SDS011;35254;47.990;-1.608;2023-03-11T05:41:49;2.15;;;0.30;;
49378;SDS011;35254;47.990;-1.608;2023-03-11T05:44:14;0.38;;;0.20;;
49378;SDS011;35254;47.990;-1.608;2023-03-11T05:46:40;0.20;;;0.20;;
49378;SDS011;35254;47.990;-1.608;2023-03-11T05:49:05;0.17;;;0.17;;
49378;SDS011;35254;47.990;-1.608;2023-03-11T05:51:31;0.30;;;0.30;;
49378;SDS011;35254;47.990;-1.608;2023-03-11T05:53:57;0.35;;;0.35;;
49378;SDS011;35254;47.990;-1.608;2023-03-11T05:56:22;0.25;;;0.25;;
49378;SDS011;35254;47.990;-1.608;2023-03-11T05:58:48;0.20;;;0.20;;
49378;SDS011;35254;47.990;-1.608;2023-03-11T06:01:15;0.22;;;0.22;;
49378;SDS011;35254;47.990;-1.608;2023-03-11T06:03:42;2.70;;;0.35;;
49378;SDS011;35254;47.990;-1.608;2023-03-11T06:06:09;1.55;;;0.22;;
49378;SDS011;35254;47.990;-1.608;2023-03-11T06:08:36;0.20;;;0.20;;
49378;SDS011;35254;47.990;-1.608;2023-03-11T06:11:06;2.40;;;0.20;;
49378;SDS011;35254;47.990;-1.608;2023-03-11T06:13:33;0.40;;;0.30;;
49378;SDS011;35254;47.990;-1.608;2023-03-11T06:15:59;0.63;;;0.43;;
49378;SDS011;35254;47.990;-1.608;2023-03-11T06:18:25;0.45;;;0.28;;
49378;SDS011;35254;47.990;-1.608;2023-03-11T06:20:51;1.33;;;0.20;;
49378;SDS011;35254;47.990;-1.608;2023-03-11T06:23:17;0.30;;;0.20;;
49378;SDS011;35254;47.990;-1.608;2023-03-11T06:25:43;0.30;;;0.30;;
49378;SDS011;35254;47.990;-1.608;2023-03-11T06:28:09;0.22;;;0.22;;
49378;SDS011;35254;47.990;-1.608;2023-03-11T06:30:35;0.73;;;0.38;;
49378;SDS011;35254;47.990;-1.608;2023-03-11T06:33:00;0.30;;;0.30;;
49378;SDS011;35254;47.990;-1.608;2023-03-11T06:35:26;0.38;;;0.38;;
49378;SDS011;35254;47.990;-1.608;2023-03-11T06:37:52;0.50;;;0.28;;
49378;SDS011;35254;47.990;-1.608;2023-03-11T06:40:17;0.20;;;0.20;;
49378;SDS011;35254;47.990;-1.608;2023-03-11T06:42:46;0.30;;;0.30;;
49378;SDS011;35254;47.990;-1.608;2023-03-11T06:45:12;0.30;;;0.28;;
49378;SDS011;35254;47.990;-1.608;2023-03-11T06:47:37;0.32;;;0.32;;
49378;SDS011;35254;47.990;-1.608;2023-03-11T06:50:04;0.70;;;0.60;;
49378;SDS011;35254;47.990;-1.608;2023-03-11T06:52:33;0.17;;;0.10;;
49378;SDS011;35254;47.990;-1.608;2023-03-11T06:54:58;0.20;;;0.20;;
49378;SDS011;35254;47.990;-1.608;2023-03-11T06:57:24;1.17;;;0.20;;
49378;SDS011;35254;47.990;-1.608;2023-03-11T06:59:50;0.30;;;0.30;;
49378;SDS011;35254;47.990;-1.608;2023-03-11T07:02:16;1.55;;;0.30;;
49378;SDS011;35254;47.990;-1.608;2023-03-11T07:04:42;0.98;;;0.95;;
49378;SDS011;35254;47.990;-1.608;2023-03-11T07:07:07;0.13;;;0.13;;
49378;SDS011;35254;47.990;-1.608;2023-03-11T07:09:33;0.17;;;0.17;;
49378;SDS011;35254;47.990;-1.608;2023-03-11T07:11:58;0.20;;;0.20;;
49378;SDS011;35254;47.990;-1.608;2023-03-11T07:14:24;2.10;;;0.20;;
49378;SDS011;35254;47.990;-1.608;2023-03-11T07:16:50;0.10;;;0.10;;
49378;SDS011;35254;47.990;-1.608;2023-03-11T07:19:15;0.30;;;0.28;;
49378;SDS011;35254;47.990;-1.608;2023-03-11T07:21:41;0.20;;;0.20;;
49378;SDS011;35254;47.990;-1.608;2023-03-11T07:24:06;0.20;;;0.20;;
49378;SDS011;35254;47.990;-1.608;2023-03-11T07:26:34;0.10;;;0.10;;
49378;SDS011;35254;47.990;-1.608;2023-03-11T07:29:00;7.47;;;0.30;;
49378;SDS011;35254;47.990;-1.608;2023-03-11T07:31:27;0.75;;;0.35;;
49378;SDS011;35254;47.990;-1.608;2023-03-11T07:33:58;0.68;;;0.47;;
49378;SDS011;35254;47.990;-1.608;2023-03-11T07:36:26;0.85;;;0.30;;
49378;SDS011;35254;47.990;-1.608;2023-03-11T07:38:56;0.30;;;0.28;;
49378;SDS011;35254;47.990;-1.608;2023-03-11T07:41:23;2.20;;;0.30;;
49378;SDS011;35254;47.990;-1.608;2023-03-11T07:43:52;0.43;;;0.40;;
49378;SDS011;35254;47.990;-1.608;2023-03-11T07:46:20;6.65;;;0.63;;
49378;SDS011;35254;47.990;-1.608;2023-03-11T07:48:47;3.13;;;0.82;;
49378;SDS011;35254;47.990;-1.608;2023-03-11T07:51:14;2.00;;;0.20;;
49378;SDS011;35254;47.990;-1.608;2023-03-11T07:53:43;0.40;;;0.28;;
49378;SDS011;35254;47.990;-1.608;2023-03-11T07:56:09;0.30;;;0.30;;
49378;SDS011;35254;47.990;-1.608;2023-03-11T07:58:36;1.50;;;0.30;;
49378;SDS011;35254;47.990;-1.608;2023-03-11T08:01:06;0.85;;;0.20;;
49378;SDS011;35254;47.990;-1.608;2023-03-11T08:03:34;0.70;;;0.20;;
49378;SDS011;35254;47.990;-1.608;2023-03-11T08:06:00;0.50;;;0.32;;
49378;SDS011;35254;47.990;-1.608;2023-03-11T08:08:26;0.13;;;0.13;;
49378;SDS011;35254;47.990;-1.608;2023-03-11T08:10:52;0.30;;;0.30;;
49378;SDS011;35254;47.990;-1.608;2023-03-11T08:13:18;2.90;;;0.40;;
49378;SDS011;35254;47.990;-1.608;2023-03-11T08:15:44;1.15;;;0.30;;
49378;SDS011;35254;47.990;-1.608;2023-03-11T08:18:10;1.25;;;0.35;;
49378;SDS011;35254;47.990;-1.608;2023-03-11T08:20:36;0.57;;;0.10;;
49378;SDS011;35254;47.990;-1.608;2023-03-11T08:23:02;0.68;;;0.40;;
49378;SDS011;35254;47.990;-1.608;2023-03-11T08:25:28;5.90;;;0.57;;
49378;SDS011;35254;47.990;-1.608;2023-03-11T08:27:53;4.85;;;0.60;;
49378;SDS011;35254;47.990;-1.608;2023-03-11T08:30:19;1.20;;;0.60;;
49378;SDS011;35254;47.990;-1.608;2023-03-11T08:32:45;2.97;;;0.55;;
49378;SDS011;35254;47.990;-1.608;2023-03-11T08:35:11;7.25;;;0.70;;
49378;SDS011;35254;47.990;-1.608;2023-03-11T08:37:36;2.20;;;0.35;;
49378;SDS011;35254;47.990;-1.608;2023-03-11T08:40:02;1.50;;;0.22;;
49378;SDS011;35254;47.990;-1.608;2023-03-11T08:42:29;0.93;;;0.47;;
49378;SDS011;35254;47.990;-1.608;2023-03-11T08:44:54;0.35;;;0.30;;
49378;SDS011;35254;47.990;-1.608;2023-03-11T08:47:20;1.45;;;0.63;;
49378;SDS011;35254;47.990;-1.608;2023-03-11T08:49:46;1.10;;;0.32;;
49378;SDS011;35254;47.990;-1.608;2023-03-11T08:52:11;0.60;;;0.20;;
49378;SDS011;35254;47.990;-1.608;2023-03-11T08:54:37;3.25;;;0.45;;
49378;SDS011;35254;47.990;-1.608;2023-03-11T08:57:03;0.47;;;0.30;;
49378;SDS011;35254;47.990;-1.608;2023-03-11T08:59:29;4.47;;;0.47;;
49378;SDS011;35254;47.990;-1.608;2023-03-11T09:01:55;0.50;;;0.50;;
49378;SDS011;35254;47.990;-1.608;2023-03-11T09:04:20;1.40;;;0.30;;
49378;SDS011;35254;47.990;-1.608;2023-03-11T09:06:46;0.30;;;0.30;;
49378;SDS011;35254;47.990;-1.608;2023-03-11T09:09:13;3.25;;;0.30;;
49378;SDS011;35254;47.990;-1.608;2023-03-11T09:11:40;0.25;;;0.25;;
49378;SDS011;35254;47.990;-1.608;2023-03-11T09:14:06;2.30;;;0.30;;
49378;SDS011;35254;47.990;-1.608;2023-03-11T09:16:32;0.57;;;0.40;;
49378;SDS011;35254;47.990;-1.608;2023-03-11T09:18:58;0.32;;;0.30;;
49378;SDS011;35254;47.990;-1.608;2023-03-11T09:21:30;0.40;;;0.30;;
49378;SDS011;35254;47.990;-1.608;2023-03-11T09:24:00;1.27;;;0.30;;
49378;SDS011;35254;47.990;-1.608;2023-03-11T09:26:28;0.85;;;0.40;;
49378;SDS011;35254;47.990;-1.608;2023-03-11T09:28:56;4.57;;;0.50;;
49378;SDS011;35254;47.990;-1.608;2023-03-11T09:31:22;0.30;;;0.30;;
49378;SDS011;35254;47.990;-1.608;2023-03-11T09:33:48;5.68;;;0.50;;
49378;SDS011;35254;47.990;-1.608;2023-03-11T09:36:16;1.05;;;0.28;;
49378;SDS011;35254;47.990;-1.608;2023-03-11T09:38:44;1.20;;;0.63;;
49378;SDS011;35254;47.990;-1.608;2023-03-11T09:51:52;0.15;;;0.15;;
49378;SDS011;35254;47.990;-1.608;2023-03-11T09:54:24;0.20;;;0.20;;
49378;SDS011;35254;47.990;-1.608;2023-03-11T09:56:54;0.43;;;0.20;;
49378;SDS011;35254;47.990;-1.608;2023-03-11T09:59:28;3.30;;;0.30;;
49378;SDS011;35254;47.990;-1.608;2023-03-11T10:01:56;0.93;;;0.38;;
49378;SDS011;35254;47.990;-1.608;2023-03-11T10:04:24;0.10;;;0.10;;
49378;SDS011;35254;47.990;-1.608;2023-03-11T10:06:54;1.20;;;0.98;;
49378;SDS011;35254;47.990;-1.608;2023-03-11T10:09:32;0.68;;;0.30;;
49378;SDS011;35254;47.990;-1.608;2023-03-11T10:26:38;0.52;;;0.20;;
49378;SDS011;35254;47.990;-1.608;2023-03-11T10:31:56;2.33;;;0.20;;
49378;SDS011;35254;47.990;-1.608;2023-03-11T10:34:33;0.55;;;0.22;;
49378;SDS011;35254;47.990;-1.608;2023-03-11T10:37:10;0.55;;;0.22;;
49378;SDS011;35254;47.990;-1.608;2023-03-11T10:39:42;0.20;;;0.20;;
49378;SDS011;35254;47.990;-1.608;2023-03-11T10:42:12;0.47;;;0.47;;
49378;SDS011;35254;47.990;-1.608;2023-03-11T10:44:42;0.32;;;0.30;;
49378;SDS011;35254;47.990;-1.608;2023-03-11T10:47:16;6.60;;;0.50;;
49378;SDS011;35254;47.990;-1.608;2023-03-11T10:49:47;0.88;;;0.20;;
49378;SDS011;35254;47.990;-1.608;2023-03-11T10:52:13;2.33;;;0.30;;
49378;SDS011;35254;47.990;-1.608;2023-03-11T10:54:40;6.95;;;0.35;;
49378;SDS011;35254;47.990;-1.608;2023-03-11T10:57:32;3.03;;;0.10;;
49378;SDS011;35254;47.990;-1.608;2023-03-11T11:00:01;0.68;;;0.30;;
49378;SDS011;35254;47.990;-1.608;2023-03-11T11:02:50;4.88;;;1.77;;
49378;SDS011;35254;47.990;-1.608;2023-03-11T11:05:28;1.27;;;0.30;;
49378;SDS011;35254;47.990;-1.608;2023-03-11T11:10:31;1.40;;;0.35;;
49378;SDS011;35254;47.990;-1.608;2023-03-11T11:15:33;5.32;;;0.40;;
49378;SDS011;35254;47.990;-1.608;2023-03-11T11:18:04;1.38;;;0.50;;
49378;SDS011;35254;47.990;-1.608;2023-03-11T11:20:40;1.45;;;0.30;;
49378;SDS011;35254;47.990;-1.608;2023-03-11T11:23:30;2.95;;;0.75;;
49378;SDS011;35254;47.990;-1.608;2023-03-11T11:28:29;4.22;;;0.43;;
49378;SDS011;35254;47.990;-1.608;2023-03-11T11:30:57;1.17;;;0.30;;
49378;SDS011;35254;47.990;-1.608;2023-03-11T11:36:15;5.65;;;0.63;;
49378;SDS011;35254;47.990;-1.608;2023-03-11T11:38:42;3.75;;;0.32;;
49378;SDS011;35254;47.990;-1.608;2023-03-11T11:41:08;1.55;;;0.40;;
49378;SDS011;35254;47.990;-1.608;2023-03-11T11:46:46;0.30;;;0.20;;
49378;SDS011;35254;47.990;-1.608;2023-03-11T11:49:06;0.75;;;0.25;;
49378;SDS011;35254;47.990;-1.608;2023-03-11T11:51:59;1.30;;;0.33;;
49378;SDS011;35254;47.990;-1.608;2023-03-11T11:54:32;2.45;;;0.50;;
49378;SDS011;35254;47.990;-1.608;2023-03-11T11:57:12;1.05;;;0.95;;
49378;SDS011;35254;47.990;-1.608;2023-03-11T11:59:42;0.98;;;0.60;;
49378;SDS011;35254;47.990;-1.608;2023-03-11T12:07:24;0.82;;;0.40;;
49378;SDS011;35254;47.990;-1.608;2023-03-11T12:15:26;2.30;;;0.57;;
49378;SDS011;35254;47.990;-1.608;2023-03-11T12:17:59;0.30;;;0.30;;
49378;SDS011;35254;47.990;-1.608;2023-03-11T12:20:34;0.82;;;0.40;;
49378;SDS011;35254;47.990;-1.608;2023-03-11T12:23:17;1.50;;;0.75;;
49378;SDS011;35254;47.990;-1.608;2023-03-11T12:25:51;4.75;;;0.70;;
49378;SDS011;35254;47.990;-1.608;2023-03-11T12:31:26;0.95;;;0.40;;
49378;SDS011;35254;47.990;-1.608;2023-03-11T12:33:58;1.15;;;0.80;;
49378;SDS011;35254;47.990;-1.608;2023-03-11T12:36:28;0.83;;;0.80;;
49378;SDS011;35254;47.990;-1.608;2023-03-11T12:38:59;1.92;;;0.95;;
49378;SDS011;35254;47.990;-1.608;2023-03-11T12:44:04;1.13;;;0.63;;
49378;SDS011;35254;47.990;-1.608;2023-03-11T12:49:22;1.10;;;0.80;;
49378;SDS011;35254;47.990;-1.608;2023-03-11T12:54:33;3.05;;;0.85;;
49378;SDS011;35254;47.990;-1.608;2023-03-11T12:59:59;1.17;;;0.70;;
49378;SDS011;35254;47.990;-1.608;2023-03-11T13:08:36;4.35;;;0.57;;
49378;SDS011;35254;47.990;-1.608;2023-03-11T13:11:27;1.35;;;0.52;;
49378;SDS011;35254;47.990;-1.608;2023-03-11T13:16:51;1.48;;;0.70;;
49378;SDS011;35254;47.990;-1.608;2023-03-11T13:21:56;7.65;;;0.77;;
49378;SDS011;35254;47.990;-1.608;2023-03-11T13:41:30;18.50;;;7.05;;
49378;SDS011;35254;47.990;-1.608;2023-03-11T13:43:59;20.52;;;4.38;;
49378;SDS011;35254;47.990;-1.608;2023-03-11T13:46:42;17.58;;;4.15;;
49378;SDS011;35254;47.990;-1.608;2023-03-11T13:49:20;12.20;;;3.10;;
49378;SDS011;35254;47.990;-1.608;2023-03-11T13:51:54;15.10;;;3.38;;
49378;SDS011;35254;47.990;-1.608;2023-03-11T13:54:28;8.65;;;2.58;;
49378;SDS011;35254;47.990;-1.608;2023-03-11T13:57:02;8.82;;;2.63;;
49378;SDS011;35254;47.990;-1.608;2023-03-11T14:01:59;9.27;;;2.30;;
49378;SDS011;35254;47.990;-1.608;2023-03-11T14:04:29;5.30;;;2.30;;
49378;SDS011;35254;47.990;-1.608;2023-03-11T14:06:57;23.42;;;3.90;;
49378;SDS011;35254;47.990;-1.608;2023-03-11T14:09:24;6.00;;;1.77;;
49378;SDS011;35254;47.990;-1.608;2023-03-11T14:11:52;8.77;;;1.92;;
49378;SDS011;35254;47.990;-1.608;2023-03-11T14:15:03;3.43;;;2.00;;
49378;SDS011;35254;47.990;-1.608;2023-03-11T14:17:16;3.25;;;1.27;;
49378;SDS011;35254;47.990;-1.608;2023-03-11T14:20:00;2.40;;;1.90;;
49378;SDS011;35254;47.990;-1.608;2023-03-11T14:22:31;13.57;;;3.22;;
49378;SDS011;35254;47.990;-1.608;2023-03-11T14:24:58;7.45;;;4.50;;
49378;SDS011;35254;47.990;-1.608;2023-03-11T14:27:29;7.63;;;3.30;;
49378;SDS011;35254;47.990;-1.608;2023-03-11T14:29:56;7.10;;;2.67;;
49378;SDS011;35254;47.990;-1.608;2023-03-11T14:34:52;7.90;;;2.30;;
49378;SDS011;35254;47.990;-1.608;2023-03-11T14:37:34;12.98;;;2.28;;
49378;SDS011;35254;47.990;-1.608;2023-03-11T14:40:02;7.80;;;2.15;;
49378;SDS011;35254;47.990;-1.608;2023-03-11T14:42:47;13.05;;;2.63;;
49378;SDS011;35254;47.990;-1.608;2023-03-11T14:45:18;8.00;;;1.98;;
49378;SDS011;35254;47.990;-1.608;2023-03-11T14:47:46;9.32;;;1.85;;
49378;SDS011;35254;47.990;-1.608;2023-03-11T14:50:18;4.90;;;1.55;;
49378;SDS011;35254;47.990;-1.608;2023-03-11T14:53:00;9.50;;;2.03;;
49378;SDS011;35254;47.990;-1.608;2023-03-11T14:55:31;11.13;;;3.00;;
49378;SDS011;35254;47.990;-1.608;2023-03-11T15:00:35;3.92;;;2.30;;
49378;SDS011;35254;47.990;-1.608;2023-03-11T15:05:41;8.82;;;2.15;;
49378;SDS011;35254;47.990;-1.608;2023-03-11T15:08:08;9.30;;;1.57;;
49378;SDS011;35254;47.990;-1.608;2023-03-11T15:10:34;10.23;;;1.95;;
49378;SDS011;35254;47.990;-1.608;2023-03-11T15:13:08;5.60;;;1.50;;
49378;SDS011;35254;47.990;-1.608;2023-03-11T15:15:37;4.13;;;1.92;;
49378;SDS011;35254;47.990;-1.608;2023-03-11T15:18:14;4.20;;;1.92;;
49378;SDS011;35254;47.990;-1.608;2023-03-11T15:20:46;3.45;;;1.48;;
49378;SDS011;35254;47.990;-1.608;2023-03-11T15:23:26;3.53;;;1.50;;
49378;SDS011;35254;47.990;-1.608;2023-03-11T15:25:52;6.88;;;1.65;;
49378;SDS011;35254;47.990;-1.608;2023-03-11T15:28:22;8.35;;;1.58;;
49378;SDS011;35254;47.990;-1.608;2023-03-11T15:30:49;6.20;;;1.70;;
49378;SDS011;35254;47.990;-1.608;2023-03-11T15:33:20;3.47;;;1.67;;
49378;SDS011;35254;47.990;-1.608;2023-03-11T15:35:47;10.93;;;2.00;;
49378;SDS011;35254;47.990;-1.608;2023-03-11T15:38:17;4.82;;;2.30;;
49378;SDS011;35254;47.990;-1.608;2023-03-11T15:40:56;3.92;;;1.83;;
49378;SDS011;35254;47.990;-1.608;2023-03-11T15:43:30;8.30;;;3.38;;
49378;SDS011;35254;47.990;-1.608;2023-03-11T15:45:59;12.02;;;1.73;;
49378;SDS011;35254;47.990;-1.608;2023-03-11T15:48:27;4.35;;;1.38;;
49378;SDS011;35254;47.990;-1.608;2023-03-11T15:50:54;10.38;;;1.60;;
49378;SDS011;35254;47.990;-1.608;2023-03-11T15:53:22;4.38;;;1.33;;
49378;SDS011;35254;47.990;-1.608;2023-03-11T15:55:50;3.88;;;1.52;;
49378;SDS011;35254;47.990;-1.608;2023-03-11T15:58:17;2.42;;;1.38;;
49378;SDS011;35254;47.990;-1.608;2023-03-11T16:00:46;1.75;;;0.93;;
49378;SDS011;35254;47.990;-1.608;2023-03-11T16:03:13;5.30;;;2.10;;
49378;SDS011;35254;47.990;-1.608;2023-03-11T16:05:39;1.55;;;1.30;;
49378;SDS011;35254;47.990;-1.608;2023-03-11T16:08:05;2.15;;;1.30;;
49378;SDS011;35254;47.990;-1.608;2023-03-11T16:10:31;3.20;;;1.42;;
49378;SDS011;35254;47.990;-1.608;2023-03-11T16:12:57;6.28;;;1.70;;
49378;SDS011;35254;47.990;-1.608;2023-03-11T16:15:24;5.32;;;1.38;;
49378;SDS011;35254;47.990;-1.608;2023-03-11T16:17:58;3.33;;;1.60;;
49378;SDS011;35254;47.990;-1.608;2023-03-11T16:20:26;7.18;;;1.80;;
49378;SDS011;35254;47.990;-1.608;2023-03-11T16:22:57;1.67;;;1.10;;
49378;SDS011;35254;47.990;-1.608;2023-03-11T16:25:26;9.30;;;1.52;;
49378;SDS011;35254;47.990;-1.608;2023-03-11T16:27:54;5.50;;;1.52;;
49378;SDS011;35254;47.990;-1.608;2023-03-11T16:30:21;3.60;;;1.20;;
49378;SDS011;35254;47.990;-1.608;2023-03-11T16:32:48;5.10;;;1.40;;